Time;durP1;ratioP1;P1;durP2;ratioP2;P2;SDS_P1;SDS_P2;PMS_P1;PMS_P2;Temp;Humidity;BMP_temperature;BMP_pressure;BME280_temperature;BME280_humidity;BME280_pressure;Samples;Min_cycle;Max_cycle;Signal;HPM_P1;HPM_P2
2022/05/10 00:00:19;;;;;;;;;;;;;;;11.95;53.83;100726.00;4949421;28;2794;-93
2022/05/10 00:02:45;;;;;;;;;;;;;;;11.94;53.59;100725.16;4936855;29;2451;-92
2022/05/10 00:05:12;;;;;;;;;;;;;;;11.94;53.65;100718.94;4953224;28;2137;-92
2022/05/10 00:07:38;;;;;;;;;;;;;;;11.94;53.85;100727.88;4936364;28;2584;-92
2022/05/10 00:10:04;;;;;;;;;;;;;;;11.94;53.77;100725.16;4927304;29;4939;-92
2022/05/10 00:12:32;;;;;;;;;;;;;;;11.94;53.80;100722.47;4938608;29;2134;-92
2022/05/10 00:14:58;;;;;;;;;;;;;;;11.93;53.62;100720.81;4936552;29;2457;-91
2022/05/10 00:17:24;;;;;;;;;;;;;;;11.93;53.65;100714.59;4954617;29;2090;-92
2022/05/10 00:19:51;;;;;;;;;;;;;;;11.92;53.68;100713.78;4926970;29;4996;-93
2022/05/10 00:22:17;;;;;;;;;;;;;;;11.93;53.70;100712.72;4936058;29;2150;-92
2022/05/10 00:24:43;;;;;;;;;;;;;;;11.92;53.61;100712.94;4934298;29;2345;-92
2022/05/10 00:27:10;;;;;;;;;;;;;;;11.91;53.67;100706.72;4938190;29;2043;-92
2022/05/10 00:29:36;;;;;;;;;;;;;;;11.91;53.68;100695.94;4930289;29;4995;-92
2022/05/10 00:32:02;;;;;;;;;;;;;;;11.90;53.71;100683.47;4950445;29;2126;-92
2022/05/10 00:34:28;;;;;;;;;;;;;;;11.91;53.60;100684.28;4935780;29;2108;-92
2022/05/10 00:36:55;;;;;;;;;;;;;;;11.89;53.52;100670.22;4937907;29;2194;-92
2022/05/10 00:39:21;;;;;;;;;;;;;;;11.90;53.54;100669.16;4931740;29;5024;-92
2022/05/10 00:41:47;;;;;;;;;;;;;;;11.89;53.47;100673.72;4952499;28;2141;-93
2022/05/10 00:44:14;;;;;;;;;;;;;;;11.89;53.64;100673.72;4935866;29;2225;-92
2022/05/10 00:46:40;;;;;;;;;;;;;;;11.88;53.42;100658.56;4937475;29;2431;-93
2022/05/10 00:49:07;;;;;;;;;;;;;;;11.88;53.61;100658.56;4930435;29;4661;-92
2022/05/10 00:51:33;;;;;;;;;;;;;;;11.88;53.57;100657.75;4937701;29;3772;-92
2022/05/10 00:53:59;;;;;;;;;;;;;;;11.88;53.63;100657.75;4936355;29;3601;-92
2022/05/10 00:56:26;;;;;;;;;;;;;;;11.87;53.62;100658.81;4934184;28;3282;-92
2022/05/10 00:58:52;;;;;;;;;;;;;;;11.86;53.60;100652.59;4936352;29;4935;-92
2022/05/10 01:01:18;;;;;;;;;;;;;;;11.86;53.58;100646.38;4937414;29;4863;-92
2022/05/10 01:03:45;;;;;;;;;;;;;;;11.86;53.56;100649.09;4936021;29;3576;-92
2022/05/10 01:06:11;;;;;;;;;;;;;;;11.85;53.61;100647.38;4939642;29;1200;-92
2022/05/10 01:08:37;;;;;;;;;;;;;;;11.85;53.55;100641.97;4949632;28;5071;-92
2022/05/10 01:11:04;;;;;;;;;;;;;;;11.85;53.54;100641.97;4951349;28;3826;-92
2022/05/10 01:13:30;;;;;;;;;;;;;;;11.83;53.59;100642.22;4932126;29;2214;-93
2022/05/10 01:15:56;;;;;;;;;;;;;;;11.83;53.46;100640.34;4953474;28;2394;-92
2022/05/10 01:18:23;;;;;;;;;;;;;;;11.83;53.57;100642.22;4944020;28;2869;-92
2022/05/10 01:20:49;;;;;;;;;;;;;;;11.83;53.34;100634.13;4930508;29;5060;-92
2022/05/10 01:23:15;;;;;;;;;;;;;;;11.82;53.40;100622.50;4952996;29;2243;-92
2022/05/10 01:25:42;;;;;;;;;;;;;;;11.81;53.49;100620.03;4935155;29;3782;-91
2022/05/10 01:28:08;;;;;;;;;;;;;;;11.81;53.41;100614.63;4953042;29;2233;-92
2022/05/10 01:30:34;;;;;;;;;;;;;;;11.80;53.37;100616.50;4951209;28;2948;-93
2022/05/10 01:35:45;;;;;;;;;;;;;;;11.79;53.42;100622.13;4935807;29;4356;-93
2022/05/10 01:38:11;;;;;;;;;;;;;;;11.78;53.46;100610.50;4933603;29;2151;-93
2022/05/10 01:40:37;;;;;;;;;;;;;;;11.79;53.50;100609.47;4948040;28;2352;-92
2022/05/10 01:43:04;;;;;;;;;;;;;;;11.78;53.48;100607.00;4949113;28;4856;-92
2022/05/10 01:45:30;;;;;;;;;;;;;;;11.78;53.34;100607.00;4935994;29;3987;-93
2022/05/10 01:47:56;;;;;;;;;;;;;;;11.79;53.48;100597.84;4946193;29;2396;-92
2022/05/10 01:50:22;;;;;;;;;;;;;;;11.77;53.50;100599.97;4935430;29;3916;-92
2022/05/10 01:52:49;;;;;;;;;;;;;;;11.76;53.35;100601.81;4931350;28;5097;-92
2022/05/10 01:55:15;;;;;;;;;;;;;;;11.76;53.28;100580.22;4933323;29;4038;-92
2022/05/10 01:57:41;;;;;;;;;;;;;;;11.75;53.31;100585.84;4933761;28;5063;-92
2022/05/10 02:00:08;;;;;;;;;;;;;;;11.76;53.22;100587.50;4934191;29;5010;-92
2022/05/10 02:02:34;;;;;;;;;;;;;;;11.75;53.30;100583.16;4949984;29;2188;-92
2022/05/10 02:05:00;;;;;;;;;;;;;;;11.74;53.38;100590.44;4952125;28;2156;-93
2022/05/10 02:07:27;;;;;;;;;;;;;;;11.73;53.34;100577.97;4938047;29;2060;-92
2022/05/10 02:09:53;;;;;;;;;;;;;;;11.73;53.22;100577.16;4933489;29;4986;-93
2022/05/10 02:12:20;;;;;;;;;;;;;;;11.73;53.33;100580.69;4938865;29;2335;-93
2022/05/10 02:14:46;;;;;;;;;;;;;;;11.72;53.24;100573.63;4953695;28;2285;-91
2022/05/10 02:17:12;;;;;;;;;;;;;;;11.71;53.38;100577.41;4948942;28;2079;-92
2022/05/10 02:19:38;;;;;;;;;;;;;;;11.72;53.38;100572.81;4948688;28;4980;-93
2022/05/10 02:22:05;;;;;;;;;;;;;;;11.71;53.38;100572.00;4954725;29;2230;-93
2022/05/10 02:24:31;;;;;;;;;;;;;;;11.70;53.40;100558.72;4934408;29;2307;-92
2022/05/10 02:26:57;;;;;;;;;;;;;;;11.70;53.43;100556.84;4954810;28;1184;-93
2022/05/10 02:29:24;;;;;;;;;;;;;;;11.68;53.41;100548.19;4932515;29;5169;-92
2022/05/10 02:34:34;;;;;;;;;;;;;;;11.68;53.32;100537.38;4946635;28;2294;-92
2022/05/10 02:37:00;;;;;;;;;;;;;;;11.68;53.37;100539.25;4957510;28;1987;-93
2022/05/10 02:39:27;;;;;;;;;;;;;;;11.68;53.43;100534.69;4936221;29;5058;-92
2022/05/10 02:41:53;;;;;;;;;;;;;;;11.67;53.35;100524.09;4941686;29;1858;-92
2022/05/10 02:44:19;;;;;;;;;;;;;;;11.67;53.48;100529.50;4935136;29;2247;-92
2022/05/10 02:46:46;;;;;;;;;;;;;;;11.66;53.34;100523.28;4941488;29;1966;-92
2022/05/10 02:49:12;;;;;;;;;;;;;;;11.67;53.39;100516.00;4935778;29;4990;-91
2022/05/10 02:51:38;;;;;;;;;;;;;;;11.65;53.37;100496.53;4957720;28;1929;-91
2022/05/10 02:54:04;;;;;;;;;;;;;;;11.65;53.50;100496.53;4942079;28;2371;-92
2022/05/10 02:56:31;;;;;;;;;;;;;;;11.65;53.44;100500.06;4957310;29;2116;-92
2022/05/10 02:58:57;;;;;;;;;;;;;;;11.64;53.39;100487.63;4934002;28;5048;-92
2022/05/10 03:01:24;;;;;;;;;;;;;;;11.63;53.33;100485.97;4955038;29;2077;-91
2022/05/10 03:03:50;;;;;;;;;;;;;;;11.64;53.30;100476.00;4954690;28;2105;-91
2022/05/10 03:06:17;;;;;;;;;;;;;;;11.64;53.35;100470.63;4955452;29;2513;-91
2022/05/10 03:08:43;;;;;;;;;;;;;;;11.63;53.43;100468.97;4947979;28;5055;-91
2022/05/10 03:11:10;;;;;;;;;;;;;;;11.62;53.42;100460.06;4955661;29;2237;-91
2022/05/10 03:13:36;;;;;;;;;;;;;;;11.62;53.33;100459.22;4935822;29;2156;-91
2022/05/10 03:16:03;;;;;;;;;;;;;;;11.61;53.31;100447.63;4938203;29;2459;-91
2022/05/10 03:18:29;;;;;;;;;;;;;;;11.61;53.39;100444.91;4936964;29;4927;-92
2022/05/10 03:20:55;;;;;;;;;;;;;;;11.60;53.25;100444.09;4953017;28;2504;-92
2022/05/10 03:23:22;;;;;;;;;;;;;;;11.60;53.47;100443.28;4955100;29;2514;-92
2022/05/10 03:25:48;;;;;;;;;;;;;;;11.60;53.31;100443.28;4938803;29;2158;-92
2022/05/10 03:28:15;;;;;;;;;;;;;;;11.60;53.32;100445.97;4940170;29;4951;-92
2022/05/10 03:30:41;;;;;;;;;;;;;;;11.59;53.48;100445.16;4956756;28;4391;-92
2022/05/10 03:33:07;;;;;;;;;;;;;;;11.59;53.34;100447.03;4943191;29;2266;-92
2022/05/10 03:35:34;;;;;;;;;;;;;;;11.59;53.42;100445.16;4961059;29;2105;-92
2022/05/10 03:38:02;;;;;;;;;;;;;;;11.57;53.32;100444.56;4951789;28;4811;-92
2022/05/10 03:40:28;;;;;;;;;;;;;;;11.59;53.41;100447.03;4951639;28;4105;-92
2022/05/10 03:42:55;;;;;;;;;;;;;;;11.57;53.37;100441.84;4937279;29;2970;-91
2022/05/10 03:45:21;;;;;;;;;;;;;;;11.56;53.50;100442.91;4936165;29;2040;-92
2022/05/10 03:47:47;;;;;;;;;;;;;;;11.56;53.24;100439.41;4936879;28;4862;-92
2022/05/10 03:50:13;;;;;;;;;;;;;;;11.55;53.35;100443.94;4951932;28;5196;-92
2022/05/10 03:52:40;;;;;;;;;;;;;;;11.55;53.38;100441.25;4935828;29;2269;-92
2022/05/10 03:55:06;;;;;;;;;;;;;;;11.54;53.41;100436.09;4952984;29;2665;-92
2022/05/10 03:57:33;;;;;;;;;;;;;;;11.55;53.32;100435.03;4936920;28;2532;-92
2022/05/10 03:59:59;;;;;;;;;;;;;;;11.55;53.40;100429.66;4947928;28;5028;-92
2022/05/10 04:02:25;;;;;;;;;;;;;;;11.53;53.33;100424.50;4941330;29;2095;-92
2022/05/10 04:04:52;;;;;;;;;;;;;;;11.53;53.30;100427.19;4953220;28;2380;-92
2022/05/10 04:07:18;;;;;;;;;;;;;;;11.52;53.27;100427.41;4940166;29;2159;-91
2022/05/10 04:09:44;;;;;;;;;;;;;;;11.51;53.25;100420.38;4953260;28;4823;-92
2022/05/10 04:12:11;;;;;;;;;;;;;;;11.52;53.33;100425.53;4955952;29;2070;-93
2022/05/10 04:14:37;;;;;;;;;;;;;;;11.52;53.36;100416.63;4937952;29;2478;-92
2022/05/10 04:17:03;;;;;;;;;;;;;;;11.52;53.43;100408.53;4939079;29;2158;-92
2022/05/10 04:19:30;;;;;;;;;;;;;;;11.50;53.35;100411.47;4949946;28;4982;-92
2022/05/10 04:21:56;;;;;;;;;;;;;;;11.50;53.36;100387.19;4953819;29;2152;-93
2022/05/10 04:24:22;;;;;;;;;;;;;;;11.49;53.34;100377.44;4940260;29;2286;-93
2022/05/10 04:26:49;;;;;;;;;;;;;;;11.49;53.36;100373.94;4958524;29;2384;-92
2022/05/10 04:29:15;;;;;;;;;;;;;;;11.48;53.43;100375.00;4949195;28;4700;-92
2022/05/10 04:31:42;;;;;;;;;;;;;;;11.48;53.33;100366.91;4956515;29;2177;-93
2022/05/10 04:34:08;;;;;;;;;;;;;;;11.48;53.44;100366.91;4952202;28;2192;-92
2022/05/10 04:36:35;;;;;;;;;;;;;;;11.48;53.35;100356.13;4940487;29;2309;-93
2022/05/10 04:39:01;;;;;;;;;;;;;;;11.47;53.39;100349.91;4946186;28;4818;-92
2022/05/10 04:41:27;;;;;;;;;;;;;;;11.47;53.20;100351.75;4952643;29;2086;-93
2022/05/10 04:43:53;;;;;;;;;;;;;;;11.46;53.25;100336.63;4934174;29;2306;-92
2022/05/10 04:46:19;;;;;;;;;;;;;;;11.45;53.38;100338.53;4938585;29;2027;-94
2022/05/10 04:48:45;;;;;;;;;;;;;;;11.45;53.42;100326.91;4948430;28;4965;-94
2022/05/10 04:51:12;;;;;;;;;;;;;;;11.44;53.31;100323.41;4937405;28;2055;-93
2022/05/10 04:53:38;;;;;;;;;;;;;;;11.44;53.32;100323.41;4934777;29;2155;-92
2022/05/10 04:56:05;;;;;;;;;;;;;;;11.44;53.24;100323.41;4937516;29;2239;-93
2022/05/10 04:58:31;;;;;;;;;;;;;;;11.44;53.32;100322.56;4931872;28;5106;-93
2022/05/10 05:00:58;;;;;;;;;;;;;;;11.43;53.17;100320.91;4950850;28;2466;-94
2022/05/10 05:03:24;;;;;;;;;;;;;;;11.41;53.20;100296.88;4953858;29;2105;-93
2022/05/10 05:05:50;;;;;;;;;;;;;;;11.42;53.22;100295.03;4936135;29;2135;-93
2022/05/10 05:08:16;;;;;;;;;;;;;;;11.41;53.30;100288.78;4932706;29;5040;-93
2022/05/10 05:10:43;;;;;;;;;;;;;;;11.41;53.20;100294.16;4936251;29;3943;-93
2022/05/10 05:13:09;;;;;;;;;;;;;;;11.40;53.41;100279.06;4936285;28;2169;-93
2022/05/10 05:15:35;;;;;;;;;;;;;;;11.39;53.40;100277.44;4942789;28;2095;-93
2022/05/10 05:18:03;;;;;;;;;;;;;;;11.40;53.28;100272.84;4935370;29;4976;-93
2022/05/10 05:20:29;;;;;;;;;;;;;;;11.39;53.26;100268.53;4935653;29;4964;-92
2022/05/10 05:22:56;;;;;;;;;;;;;;;11.38;53.40;100273.06;4954360;29;2928;-92
2022/05/10 05:25:22;;;;;;;;;;;;;;;11.37;53.38;100280.34;4935087;28;1681;-92
2022/05/10 05:27:50;;;;;;;;;;;;;;;11.38;53.27;100283.84;4935788;28;4298;-95
2022/05/10 05:30:16;;;;;;;;;;;;;;;11.37;53.26;100268.72;4932807;29;5153;-95
2022/05/10 05:32:42;;;;;;;;;;;;;;;11.37;52.98;100271.44;4936461;29;2150;-95
2022/05/10 05:35:10;;;;;;;;;;;;;;;11.36;53.37;100262.53;4963157;28;2719;-94
2022/05/10 05:37:37;;;;;;;;;;;;;;;11.36;53.29;100267.09;4949477;28;2824;-95
2022/05/10 05:40:03;;;;;;;;;;;;;;;11.37;53.36;100283.03;4950417;28;5060;-95
2022/05/10 05:42:29;;;;;;;;;;;;;;;11.36;53.22;100281.41;4948727;28;2085;-94
2022/05/10 05:44:56;;;;;;;;;;;;;;;11.35;53.35;100279.78;4924104;29;2220;-95
2022/05/10 05:47:22;;;;;;;;;;;;;;;11.36;53.21;100269.81;4939601;29;1378;-95
2022/05/10 05:49:48;;;;;;;;;;;;;;;11.36;53.30;100269.81;4935327;29;4932;-95
2022/05/10 05:52:17;;;;;;;;;;;;;;;11.36;53.11;100253.63;4940123;28;2080;-95
2022/05/10 05:54:44;;;;;;;;;;;;;;;11.35;53.12;100255.50;4954641;28;2314;-95
2022/05/10 05:57:10;;;;;;;;;;;;;;;11.34;53.30;100261.94;4940986;29;1347;-95
2022/05/10 05:59:37;;;;;;;;;;;;;;;11.36;53.15;100262.53;4935829;29;4921;-94
2022/05/10 06:02:03;;;;;;;;;;;;;;;11.36;53.26;100264.41;4954828;29;2082;-95
2022/05/10 06:04:29;;;;;;;;;;;;;;;11.36;53.23;100259.00;4940145;29;2425;-94
2022/05/10 06:06:56;;;;;;;;;;;;;;;11.34;53.28;100259.22;4940385;29;1569;-94
2022/05/10 06:09:22;;;;;;;;;;;;;;;11.34;53.08;100251.16;4947777;28;4912;-95
2022/05/10 06:11:49;;;;;;;;;;;;;;;11.33;53.25;100241.44;4938933;29;2024;-95
2022/05/10 06:14:15;;;;;;;;;;;;;;;11.34;53.17;100231.44;4936570;29;2556;-96
2022/05/10 06:16:41;;;;;;;;;;;;;;;11.34;53.10;100221.47;4942674;29;1708;-95
2022/05/10 06:19:08;;;;;;;;;;;;;;;11.34;53.14;100215.28;4952431;28;5026;-95
2022/05/10 06:21:35;;;;;;;;;;;;;;;11.33;53.19;100214.47;4943397;28;2309;-95
2022/05/10 06:24:01;;;;;;;;;;;;;;;11.33;53.15;100195.59;4943676;28;2298;-94
2022/05/10 06:26:27;;;;;;;;;;;;;;;11.33;53.06;100192.91;4955630;29;2079;-95
2022/05/10 06:28:54;;;;;;;;;;;;;;;11.32;53.08;100188.56;4937340;28;5042;-94
2022/05/10 06:31:20;;;;;;;;;;;;;;;11.34;53.13;100175.66;4942162;29;1971;-96
2022/05/10 06:33:47;;;;;;;;;;;;;;;11.33;53.24;100174.03;4940764;29;2315;-95
2022/05/10 06:36:13;;;;;;;;;;;;;;;11.33;53.05;100170.50;4940968;29;2148;-95
2022/05/10 06:38:40;;;;;;;;;;;;;;;11.33;53.05;100171.31;4953175;28;4995;-95
2022/05/10 06:41:06;;;;;;;;;;;;;;;11.33;53.20;100170.50;4959172;28;1989;-95
2022/05/10 06:43:35;;;;;;;;;;;;;;;11.33;53.15;100157.03;4940886;29;2303;-95
2022/05/10 06:46:02;;;;;;;;;;;;;;;11.32;53.20;100153.50;4930348;29;2064;-96
2022/05/10 06:48:28;;;;;;;;;;;;;;;11.34;53.17;100142.47;4924740;29;5115;-95
2022/05/10 06:50:56;;;;;;;;;;;;;;;11.32;53.29;100140.03;4956811;28;3233;-94
2022/05/10 06:53:22;;;;;;;;;;;;;;;11.34;53.08;100145.19;4958287;28;2340;-94
2022/05/10 06:55:48;;;;;;;;;;;;;;;11.34;53.09;100137.91;4933899;29;1677;-95
2022/05/10 06:58:15;;;;;;;;;;;;;;;11.33;53.10;100136.28;4935358;29;5013;-95
2022/05/10 07:00:41;;;;;;;;;;;;;;;11.33;53.08;100138.16;4950632;29;5338;-94
2022/05/10 07:03:07;;;;;;;;;;;;;;;11.33;53.10;100135.47;4940130;29;2270;-95
2022/05/10 07:05:34;;;;;;;;;;;;;;;11.33;53.27;100127.38;4930755;29;1814;-95
2022/05/10 07:08:01;;;;;;;;;;;;;;;11.33;53.17;100116.59;4933547;28;4960;-93
2022/05/10 07:10:27;;;;;;;;;;;;;;;11.33;53.01;100117.41;4954949;28;2965;-93
2022/05/10 07:12:55;;;;;;;;;;;;;;;11.35;53.06;100103.66;4953107;28;2350;-93
2022/05/10 07:15:22;;;;;;;;;;;;;;;11.34;53.24;100102.84;4937416;29;1989;-92
2022/05/10 07:17:49;;;;;;;;;;;;;;;11.35;53.16;100098.28;4952027;28;5069;-93
2022/05/10 07:20:15;;;;;;;;;;;;;;;11.34;53.12;100094.78;4943864;28;5258;-94
2022/05/10 07:22:42;;;;;;;;;;;;;;;11.35;53.09;100087.50;4938947;29;2346;-93
2022/05/10 07:25:08;;;;;;;;;;;;;;;11.34;53.11;100075.09;4956976;29;2157;-95
2022/05/10 07:27:35;;;;;;;;;;;;;;;11.33;53.22;100073.44;4949617;28;4535;-94
2022/05/10 07:30:01;;;;;;;;;;;;;;;11.34;53.18;100056.22;4947908;29;2224;-94
2022/05/10 07:32:29;;;;;;;;;;;;;;;11.34;53.06;100053.50;4954971;29;2311;-93
2022/05/10 07:34:55;;;;;;;;;;;;;;;11.34;53.15;100058.91;4945333;28;4909;-94
2022/05/10 07:37:21;;;;;;;;;;;;;;;11.35;53.16;100055.16;4951629;29;2478;-93
2022/05/10 07:39:48;;;;;;;;;;;;;;;11.36;53.20;100048.72;4960556;29;2266;-93
2022/05/10 07:42:15;;;;;;;;;;;;;;;11.34;53.14;100046.25;4948853;29;2576;-93
2022/05/10 07:44:41;;;;;;;;;;;;;;;11.34;53.08;100040.84;4934132;29;4868;-92
2022/05/10 07:47:09;;;;;;;;;;;;;;;11.34;53.16;100038.16;4956946;29;4102;-93
2022/05/10 07:49:35;;;;;;;;;;;;;;;11.35;53.26;100031.72;4938438;29;2585;-93
2022/05/10 07:52:02;;;;;;;;;;;;;;;11.35;53.26;100033.56;4937164;29;2241;-93
2022/05/10 07:54:28;;;;;;;;;;;;;;;11.35;53.14;100026.31;4936904;29;4008;-94
2022/05/10 07:56:55;;;;;;;;;;;;;;;11.36;53.27;100008.28;4939465;29;2431;-95
2022/05/10 07:59:22;;;;;;;;;;;;;;;11.36;53.24;99995.59;4937539;29;2298;-95
2022/05/10 08:01:48;;;;;;;;;;;;;;;11.35;53.31;99996.66;4955781;29;2475;-95
2022/05/10 08:04:14;;;;;;;;;;;;;;;11.36;53.33;99986.69;4917194;29;4517;-94
2022/05/10 08:06:41;;;;;;;;;;;;;;;11.35;53.27;99972.41;4932338;29;2104;-96
2022/05/10 08:09:07;;;;;;;;;;;;;;;11.35;53.20;99971.56;4946995;29;2546;-94
2022/05/10 08:11:34;;;;;;;;;;;;;;;11.35;53.25;99968.88;4950848;29;2507;-94
2022/05/10 08:14:00;;;;;;;;;;;;;;;11.35;53.35;99977.81;4934872;29;2566;-96
2022/05/10 08:16:31;;;;;;;;;;;;;;;11.37;53.39;99972.16;4937498;29;2169;-96
2022/05/10 08:18:57;;;;;;;;;;;;;;;11.36;53.28;99982.13;4949694;28;4086;-94
2022/05/10 08:21:24;;;;;;;;;;;;;;;11.36;53.32;99982.13;4954867;29;3613;-95
2022/05/10 08:23:52;;;;;;;;;;;;;;;11.37;53.22;99969.47;4936463;29;3545;-96
2022/05/10 08:26:20;;;;;;;;;;;;;;;11.36;53.40;99959.75;4933689;29;2291;-95
2022/05/10 08:28:46;;;;;;;;;;;;;;;11.36;53.24;99959.75;4948373;28;2812;-94
2022/05/10 08:31:13;;;;;;;;;;;;;;;11.35;53.33;99967.00;4953469;29;1887;-95
2022/05/10 08:33:40;;;;;;;;;;;;;;;11.37;53.27;99961.38;4950504;28;5020;-95
2022/05/10 08:36:08;;;;;;;;;;;;;;;11.36;53.28;99963.25;4954972;29;1961;-95
2022/05/10 08:38:34;;;;;;;;;;;;;;;11.35;53.45;99955.38;4938799;29;2157;-95
2022/05/10 08:41:01;;;;;;;;;;;;;;;11.36;53.17;99957.03;4956300;28;1264;-94
2022/05/10 08:43:27;;;;;;;;;;;;;;;11.36;53.36;99952.47;4952724;28;2469;-95
2022/05/10 08:45:54;;;;;;;;;;;;;;;11.36;53.35;99954.34;4939232;29;1956;-95
2022/05/10 08:48:21;;;;;;;;;;;;;;;11.36;53.50;99952.47;4937579;29;2410;-94
2022/05/10 08:50:47;;;;;;;;;;;;;;;11.34;53.25;99951.88;4966074;28;2022;-95
2022/05/10 08:53:14;;;;;;;;;;;;;;;11.34;53.33;99946.47;4949984;28;4528;-96
2022/05/10 08:55:40;;;;;;;;;;;;;;;11.38;53.41;99949.50;4951312;29;1457;-94
2022/05/10 08:58:08;;;;;;;;;;;;;;;11.36;53.62;99941.69;4938248;29;2176;-94
2022/05/10 09:00:35;;;;;;;;;;;;;;;11.36;53.47;99932.78;4942159;29;2375;-94
2022/05/10 09:03:01;;;;;;;;;;;;;;;11.36;53.63;99940.88;4941444;28;4750;-94
2022/05/10 09:05:28;;;;;;;;;;;;;;;11.36;53.71;99930.09;4957599;28;1405;-95
2022/05/10 09:07:54;;;;;;;;;;;;;;;11.35;53.60;99926.56;4938365;29;1665;-95
2022/05/10 09:10:21;;;;;;;;;;;;;;;11.36;53.61;99912.03;4949832;29;1962;-94
2022/05/10 09:12:48;;;;;;;;;;;;;;;11.35;53.68;99910.41;4937466;28;2481;-94
2022/05/10 09:15:14;;;;;;;;;;;;;;;11.34;53.66;99887.19;4946572;28;2899;-94
2022/05/10 09:17:41;;;;;;;;;;;;;;;11.34;53.54;99878.28;4953620;28;3902;-93
2022/05/10 09:20:07;;;;;;;;;;;;;;;11.35;53.69;99875.34;4930702;28;5202;-94
2022/05/10 09:22:34;;;;;;;;;;;;;;;11.35;53.59;99872.66;4951202;29;1952;-94
2022/05/10 09:25:01;;;;;;;;;;;;;;;11.35;53.78;99875.34;4950540;29;2625;-94
2022/05/10 09:27:28;;;;;;;;;;;;;;;11.35;53.78;99872.66;4941290;28;2151;-95
2022/05/10 09:29:55;;;;;;;;;;;;;;;11.36;53.72;99860.81;4935434;29;5205;-95
2022/05/10 09:35:05;;;;;;;;;;;;;;;11.34;53.77;99849.44;4954693;29;2420;-94
2022/05/10 09:37:32;;;;;;;;;;;;;;;11.35;53.85;99842.16;4933303;28;4279;-93
2022/05/10 09:39:58;;;;;;;;;;;;;;;11.35;53.80;99847.56;4954937;28;4736;-93
2022/05/10 09:42:25;;;;;;;;;;;;;;;11.35;53.88;99847.56;4959994;29;958;-93
2022/05/10 09:44:51;;;;;;;;;;;;;;;11.34;53.82;99841.34;4926087;29;1529;-93
2022/05/10 09:47:18;;;;;;;;;;;;;;;11.34;53.96;99845.94;4945302;28;2222;-93
2022/05/10 09:49:45;;;;;;;;;;;;;;;11.34;53.98;99835.13;4955787;28;3903;-93
2022/05/10 09:52:11;;;;;;;;;;;;;;;11.33;53.85;99847.81;4960278;28;1901;-93
2022/05/10 09:54:38;;;;;;;;;;;;;;;11.35;54.08;99842.16;4958033;29;2092;-93
2022/05/10 09:57:05;;;;;;;;;;;;;;;11.33;54.01;99826.25;4960159;29;1269;-93
2022/05/10 09:59:32;;;;;;;;;;;;;;;11.35;53.94;99828.69;4937677;29;4901;-93
2022/05/10 10:01:58;;;;;;;;;;;;;;;11.35;53.93;99821.44;4940280;29;1198;-94
2022/05/10 10:04:25;;;;;;;;;;;;;;;11.34;54.17;99814.38;4948651;29;2062;-94
2022/05/10 10:06:51;;;;;;;;;;;;;;;11.34;54.05;99809.00;4956874;28;1671;-93
2022/05/10 10:09:18;;;;;;;;;;;;;;;11.35;54.08;99807.09;4936735;29;2037;-93
2022/05/10 10:11:44;;;;;;;;;;;;;;;11.35;54.02;99796.31;4942798;29;1999;-94
2022/05/10 10:14:11;;;;;;;;;;;;;;;11.36;54.13;99797.97;4953412;28;2624;-96
2022/05/10 10:16:37;;;;;;;;;;;;;;;11.35;54.11;99783.69;4957806;29;1842;-95
2022/05/10 10:19:04;;;;;;;;;;;;;;;11.36;54.28;99785.31;4955016;28;2411;-94
2022/05/10 10:21:33;;;;;;;;;;;;;;;11.34;54.40;99773.13;4956477;28;2785;-96
2022/05/10 10:23:59;;;;;;;;;;;;;;;11.35;54.31;99772.06;4956269;28;2294;-95
2022/05/10 10:26:26;;;;;;;;;;;;;;;11.35;54.33;99769.38;4940066;29;1201;-95
2022/05/10 10:28:53;;;;;;;;;;;;;;;11.34;54.38;99754.25;4940047;28;2476;-95
2022/05/10 10:31:19;;;;;;;;;;;;;;;11.34;54.42;99738.91;4953935;28;1911;-96
2022/05/10 10:33:46;;;;;;;;;;;;;;;11.33;54.44;99736.47;4932542;29;2271;-95
2022/05/10 10:36:12;;;;;;;;;;;;;;;11.35;54.49;99754.03;4959459;28;1374;-95
2022/05/10 10:38:39;;;;;;;;;;;;;;;11.34;54.57;99724.63;4937233;28;2418;-95
2022/05/10 10:41:05;;;;;;;;;;;;;;;11.35;54.60;99735.16;4938382;29;2115;-95
2022/05/10 10:43:32;;;;;;;;;;;;;;;11.35;54.72;99747.81;4954989;29;1727;-95
2022/05/10 10:45:58;;;;;;;;;;;;;;;11.35;54.53;99750.50;4941524;29;2029;-95
2022/05/10 10:48:25;;;;;;;;;;;;;;;11.34;54.70;99747.00;4938632;29;4967;-96
2022/05/10 10:50:52;;;;;;;;;;;;;;;11.33;54.91;99739.16;4954693;28;2520;-95
2022/05/10 10:53:20;;;;;;;;;;;;;;;11.35;54.85;99743.25;4957707;29;1949;-96
2022/05/10 10:55:47;;;;;;;;;;;;;;;11.35;54.85;99737.00;4941304;29;1343;-96
2022/05/10 10:58:14;;;;;;;;;;;;;;;11.34;54.78;99727.31;4956320;28;4984;-96
2022/05/10 11:00:41;;;;;;;;;;;;;;;11.33;54.95;99720.28;4939683;28;1964;-95
2022/05/10 11:03:07;;;;;;;;;;;;;;;11.34;54.97;99722.72;4938425;29;2136;-94
2022/05/10 11:05:34;;;;;;;;;;;;;;;11.33;54.57;99714.91;4950160;28;2031;-95
2022/05/10 11:08:00;;;;;;;;;;;;;;;11.34;54.95;99705.75;4957193;28;5090;-95
2022/05/10 11:10:27;;;;;;;;;;;;;;;11.34;54.80;99701.16;4958345;28;2504;-95
2022/05/10 11:12:53;;;;;;;;;;;;;;;11.33;55.09;99691.44;4956346;29;1683;-94
2022/05/10 11:15:20;;;;;;;;;;;;;;;11.34;55.02;99705.75;4958683;29;981;-94
2022/05/10 11:17:48;;;;;;;;;;;;;;;11.34;55.08;99694.97;4939068;28;4911;-94
2022/05/10 11:20:15;;;;;;;;;;;;;;;11.34;54.94;99694.97;4932423;29;2476;-95
2022/05/10 11:22:42;;;;;;;;;;;;;;;11.35;55.05;99685.78;4951565;28;2206;-94
2022/05/10 11:25:08;;;;;;;;;;;;;;;11.33;55.04;99679.84;4952438;29;1902;-95
2022/05/10 11:27:35;;;;;;;;;;;;;;;11.33;55.17;99667.19;4961586;28;2758;-96
2022/05/10 11:30:02;;;;;;;;;;;;;;;11.33;54.97;99647.50;4953853;28;2423;-95
2022/05/10 11:32:28;;;;;;;;;;;;;;;11.33;55.21;99642.13;4947136;29;1512;-96
2022/05/10 11:34:55;;;;;;;;;;;;;;;11.34;55.08;99638.34;4956384;28;2222;-95
2022/05/10 11:37:21;;;;;;;;;;;;;;;11.33;55.30;99636.72;4941899;29;1573;-94
2022/05/10 11:39:48;;;;;;;;;;;;;;;11.32;55.31;99625.13;4937957;29;4178;-95
2022/05/10 11:42:14;;;;;;;;;;;;;;;11.34;55.23;99635.66;4957610;29;1183;-95
2022/05/10 11:44:43;;;;;;;;;;;;;;;11.34;55.27;99624.88;4956230;29;1871;-96
2022/05/10 11:47:09;;;;;;;;;;;;;;;11.34;55.37;99620.28;4956884;28;1580;-94
2022/05/10 11:49:36;;;;;;;;;;;;;;;11.33;55.36;99626.75;4938292;29;4958;-95
2022/05/10 11:52:04;;;;;;;;;;;;;;;11.33;55.40;99615.97;4957889;28;1974;-95
2022/05/10 11:54:31;;;;;;;;;;;;;;;11.33;55.51;99621.34;4948956;28;2277;-94
2022/05/10 11:56:58;;;;;;;;;;;;;;;11.36;55.51;99611.97;4949128;28;5024;-95
2022/05/10 11:59:25;;;;;;;;;;;;;;;11.34;55.73;99619.47;4954326;29;2520;-96
2022/05/10 12:01:51;;;;;;;;;;;;;;;11.36;55.58;99609.28;4943673;29;2494;-95
2022/05/10 12:04:18;;;;;;;;;;;;;;;11.33;55.82;99605.19;4949640;28;4585;-94
2022/05/10 12:06:46;;;;;;;;;;;;;;;11.35;55.75;99602.22;4948695;29;2259;-95
2022/05/10 12:09:12;;;;;;;;;;;;;;;11.34;55.79;99587.13;4938840;29;2575;-95
2022/05/10 12:11:39;;;;;;;;;;;;;;;11.34;55.85;99582.53;4954494;29;2209;-96
2022/05/10 12:22:17;;;;;;;;;;;;;;;11.34;56.20;99573.66;4938148;29;2344;-95
2022/05/10 12:24:45;;;;;;;;;;;;;;;11.34;56.42;99563.69;4938146;29;2316;-95
2022/05/10 12:27:12;;;;;;;;;;;;;;;11.34;56.34;99558.28;4939327;29;2480;-95
2022/05/10 12:29:38;;;;;;;;;;;;;;;11.34;56.23;99558.28;4940105;29;4136;-95
2022/05/10 12:32:04;;;;;;;;;;;;;;;11.35;56.27;99551.84;4957070;29;2252;-95
2022/05/10 12:34:31;;;;;;;;;;;;;;;11.35;56.36;99567.19;4936283;29;2495;-94
2022/05/10 12:36:58;;;;;;;;;;;;;;;11.35;56.40;99553.69;4942552;29;2531;-96
2022/05/10 12:39:25;;;;;;;;;;;;;;;11.34;56.40;99547.50;4944102;29;4984;-96
2022/05/10 12:41:52;;;;;;;;;;;;;;;11.36;56.63;99536.47;4953593;29;2503;-96
2022/05/10 12:44:20;;;;;;;;;;;;;;;11.36;56.74;99544.56;4950620;29;2130;-96
2022/05/10 12:46:46;;;;;;;;;;;;;;;11.36;56.63;99536.47;4968415;29;2541;-96
2022/05/10 12:49:13;;;;;;;;;;;;;;;11.37;56.48;99532.72;4965273;28;2498;-96
2022/05/10 12:51:40;;;;;;;;;;;;;;;11.36;56.70;99544.56;4967438;29;1966;-96
2022/05/10 12:54:07;;;;;;;;;;;;;;;11.36;56.80;99539.19;4964548;29;1879;-96
2022/05/10 12:56:35;;;;;;;;;;;;;;;11.37;56.64;99530.00;4960116;28;4982;-96
2022/05/10 12:59:02;;;;;;;;;;;;;;;11.37;56.80;99535.41;4953061;29;2346;-96
2022/05/10 13:01:28;;;;;;;;;;;;;;;11.37;56.83;99528.13;4935813;29;2208;-94